Time;durP1;ratioP1;P1;durP2;ratioP2;P2;SDS_P1;SDS_P2;PMS_P1;PMS_P2;Temp;Humidity;BMP_temperature;BMP_pressure;BME280_temperature;BME280_humidity;BME280_pressure;Samples;Min_cycle;Max_cycle;Signal;HPM_P1;HPM_P2
2022/03/24 00:01:55;;;;;;;188.63;126.15;;;;;;;;;;4992246;28;20042;-61
2022/03/24 00:04:21;;;;;;;188.45;124.90;;;;;;;;;;5009294;28;20102;-62
2022/03/24 00:06:47;;;;;;;177.68;122.72;;;;;;;;;;5025433;28;20037;-61
2022/03/24 00:09:13;;;;;;;181.95;123.13;;;;;;;;;;5010298;28;20488;-62
2022/03/24 00:11:40;;;;;;;182.70;125.57;;;;;;;;;;5008945;28;20029;-62
2022/03/24 00:14:06;;;;;;;169.13;118.60;;;;;;;;;;5009067;28;20049;-62
2022/03/24 00:16:32;;;;;;;160.23;114.78;;;;;;;;;;5026294;28;20602;-64
2022/03/24 00:18:59;;;;;;;154.07;110.97;;;;;;;;;;5008617;28;20048;-63
2022/03/24 00:21:26;;;;;;;140.05;101.47;;;;;;;;;;5008595;28;20037;-63
2022/03/24 00:23:52;;;;;;;139.43;103.97;;;;;;;;;;5025145;28;20053;-63
2022/03/24 00:26:18;;;;;;;137.05;102.25;;;;;;;;;;5026350;28;20037;-62
2022/03/24 00:28:44;;;;;;;142.30;102.30;;;;;;;;;;5023627;28;20038;-63
2022/03/24 00:31:11;;;;;;;134.55;98.50;;;;;;;;;;5008723;28;20033;-63
2022/03/24 00:33:38;;;;;;;134.35;100.72;;;;;;;;;;5026140;28;20068;-62
2022/03/24 00:36:05;;;;;;;136.52;103.68;;;;;;;;;;5025489;28;20407;-64
2022/03/24 00:38:31;;;;;;;138.10;104.20;;;;;;;;;;5025365;28;20045;-63
2022/03/24 00:40:57;;;;;;;145.57;106.70;;;;;;;;;;5008623;28;20069;-62
2022/03/24 00:43:23;;;;;;;131.10;96.75;;;;;;;;;;5027256;28;20037;-62
2022/03/24 00:45:52;;;;;;;143.00;104.85;;;;;;;;;;5027227;28;20034;-60
2022/03/24 00:48:18;;;;;;;126.45;96.35;;;;;;;;;;5043409;28;20038;-60
2022/03/24 00:50:45;;;;;;;130.00;98.03;;;;;;;;;;5026445;28;20488;-63
2022/03/24 00:53:11;;;;;;;128.10;97.28;;;;;;;;;;5028193;28;20033;-61
2022/03/24 00:55:38;;;;;;;138.57;101.22;;;;;;;;;;5026515;28;20049;-60
2022/03/24 00:58:04;;;;;;;126.28;96.68;;;;;;;;;;5027992;28;20072;-63
2022/03/24 01:00:30;;;;;;;119.68;93.50;;;;;;;;;;5009997;28;20499;-61
2022/03/24 01:02:57;;;;;;;124.55;95.28;;;;;;;;;;5026608;28;21491;-61
2022/03/24 01:05:24;;;;;;;137.02;97.80;;;;;;;;;;5028550;28;20057;-61
2022/03/24 01:07:50;;;;;;;133.75;100.45;;;;;;;;;;5030731;28;20041;-62
2022/03/24 01:10:17;;;;;;;139.40;103.85;;;;;;;;;;5012917;28;20030;-62
2022/03/24 01:12:44;;;;;;;134.80;101.03;;;;;;;;;;5031884;28;20124;-62
2022/03/24 01:15:11;;;;;;;135.02;98.70;;;;;;;;;;5031603;28;20052;-63
2022/03/24 01:17:37;;;;;;;120.20;93.35;;;;;;;;;;5031027;28;20033;-63
2022/03/24 01:20:04;;;;;;;121.95;93.95;;;;;;;;;;5031409;28;20068;-64
2022/03/24 01:22:30;;;;;;;128.40;94.47;;;;;;;;;;5013376;28;20041;-63
2022/03/24 01:24:56;;;;;;;118.60;90.22;;;;;;;;;;5031361;28;20041;-63
2022/03/24 01:27:26;;;;;;;125.28;94.63;;;;;;;;;;5030115;28;20037;-64
2022/03/24 01:29:59;;;;;;;126.35;97.18;;;;;;;;;;5029814;28;20044;-64
2022/03/24 01:32:29;;;;;;;132.13;96.75;;;;;;;;;;5031381;28;20037;-63
2022/03/24 01:34:55;;;;;;;129.77;97.60;;;;;;;;;;5030049;28;20052;-64
2022/03/24 01:37:25;;;;;;;136.13;101.28;;;;;;;;;;5030677;28;20057;-62
2022/03/24 01:39:52;;;;;;;131.02;99.35;;;;;;;;;;5031491;28;20037;-62
2022/03/24 01:42:18;;;;;;;131.07;101.20;;;;;;;;;;5030793;28;20079;-63
2022/03/24 01:44:48;;;;;;;129.02;99.53;;;;;;;;;;5027995;28;20042;-63
2022/03/24 01:47:15;;;;;;;131.30;97.63;;;;;;;;;;5029926;28;20526;-63
2022/03/24 01:49:42;;;;;;;135.30;101.57;;;;;;;;;;5029887;28;20041;-63
2022/03/24 01:52:09;;;;;;;145.30;103.63;;;;;;;;;;5031635;28;20037;-63
2022/03/24 01:54:36;;;;;;;139.70;102.88;;;;;;;;;;5012878;28;20057;-63
2022/03/24 01:57:03;;;;;;;140.90;103.90;;;;;;;;;;5030482;28;20132;-63
2022/03/24 01:59:29;;;;;;;142.00;106.47;;;;;;;;;;5028433;28;20084;-64
2022/03/24 02:01:57;;;;;;;143.75;107.22;;;;;;;;;;5031074;28;20042;-62
2022/03/24 02:04:23;;;;;;;150.20;111.20;;;;;;;;;;5031120;28;20148;-63
2022/03/24 02:06:51;;;;;;;163.38;114.95;;;;;;;;;;5031161;28;20139;-63
2022/03/24 02:09:17;;;;;;;156.57;114.88;;;;;;;;;;5030099;28;20554;-63
2022/03/24 02:11:43;;;;;;;178.93;126.13;;;;;;;;;;5030712;28;20049;-64
2022/03/24 02:14:09;;;;;;;180.20;125.28;;;;;;;;;;5029590;28;20041;-63
2022/03/24 02:16:38;;;;;;;173.18;122.85;;;;;;;;;;5027655;28;20049;-63
2022/03/24 02:19:10;;;;;;;177.98;121.40;;;;;;;;;;5031132;28;20418;-63
2022/03/24 02:21:38;;;;;;;169.63;118.10;;;;;;;;;;5012516;28;20154;-62
2022/03/24 02:24:04;;;;;;;169.90;119.57;;;;;;;;;;5030520;28;20052;-63
2022/03/24 02:26:31;;;;;;;149.88;109.78;;;;;;;;;;5030151;28;20116;-63
2022/03/24 02:28:57;;;;;;;116.65;90.32;;;;;;;;;;5030979;28;20034;-63
2022/03/24 02:31:23;;;;;;;92.30;74.18;;;;;;;;;;5029098;28;20442;-63
2022/03/24 02:34:37;;;;;;;100.50;77.28;;;;;;;;;;5012206;28;20045;-62
2022/03/24 02:36:38;;;;;;;96.50;74.38;;;;;;;;;;5029685;28;20115;-62
2022/03/24 02:39:04;;;;;;;97.18;77.68;;;;;;;;;;5030501;28;20514;-63
2022/03/24 02:41:31;;;;;;;103.40;80.05;;;;;;;;;;5028501;28;20045;-63
2022/03/24 02:43:57;;;;;;;109.57;80.53;;;;;;;;;;5030428;28;20069;-63
2022/03/24 02:46:23;;;;;;;100.07;78.00;;;;;;;;;;5028674;28;20059;-63
2022/03/24 02:48:50;;;;;;;97.88;77.55;;;;;;;;;;5028794;28;20038;-62
2022/03/24 02:51:16;;;;;;;98.45;76.22;;;;;;;;;;5045174;28;20037;-62
2022/03/24 02:53:42;;;;;;;91.93;72.50;;;;;;;;;;5045324;28;20052;-64
2022/03/24 02:56:08;;;;;;;90.93;72.35;;;;;;;;;;5026405;28;20041;-62
2022/03/24 02:58:34;;;;;;;92.40;74.45;;;;;;;;;;5029971;28;20040;-64
2022/03/24 03:01:00;;;;;;;99.60;77.55;;;;;;;;;;5029666;28;20726;-65
2022/03/24 03:03:26;;;;;;;105.93;79.55;;;;;;;;;;5029073;28;20033;-62
2022/03/24 03:05:52;;;;;;;96.88;75.55;;;;;;;;;;5029592;28;20037;-63
2022/03/24 03:08:19;;;;;;;92.22;72.88;;;;;;;;;;5028947;28;20052;-63
2022/03/24 03:10:45;;;;;;;94.05;74.15;;;;;;;;;;5044720;28;20255;-63
2022/03/24 03:13:11;;;;;;;104.07;80.60;;;;;;;;;;5029186;28;20052;-63
2022/03/24 03:15:37;;;;;;;108.93;82.55;;;;;;;;;;5028760;28;20088;-63
2022/03/24 03:18:03;;;;;;;112.38;85.00;;;;;;;;;;5028086;28;20052;-62
2022/03/24 03:20:29;;;;;;;111.30;86.32;;;;;;;;;;5029950;28;20038;-61
2022/03/24 03:22:55;;;;;;;118.20;90.03;;;;;;;;;;5011233;28;20053;-62
2022/03/24 03:25:22;;;;;;;122.00;93.15;;;;;;;;;;5027454;28;20102;-63
2022/03/24 03:27:49;;;;;;;114.03;89.35;;;;;;;;;;5026991;28;20045;-62
2022/03/24 03:30:15;;;;;;;114.53;88.82;;;;;;;;;;5027509;28;20041;-62
2022/03/24 03:32:42;;;;;;;120.95;92.30;;;;;;;;;;5027485;28;20472;-64
2022/03/24 03:35:09;;;;;;;117.75;90.45;;;;;;;;;;5011055;28;20518;-62
2022/03/24 03:37:35;;;;;;;115.95;91.75;;;;;;;;;;5028353;28;20268;-62
2022/03/24 03:40:01;;;;;;;122.20;92.35;;;;;;;;;;5028390;28;20045;-62
2022/03/24 03:42:27;;;;;;;124.47;93.28;;;;;;;;;;5026893;28;20374;-62
2022/03/24 03:44:54;;;;;;;123.95;93.78;;;;;;;;;;5009449;28;20078;-63
2022/03/24 03:47:20;;;;;;;121.47;93.07;;;;;;;;;;5026503;28;20052;-62
2022/03/24 03:49:46;;;;;;;130.68;97.28;;;;;;;;;;5027730;28;20034;-62
2022/03/24 03:52:12;;;;;;;125.35;94.15;;;;;;;;;;5026756;28;20050;-63
2022/03/24 03:54:38;;;;;;;123.78;96.05;;;;;;;;;;5043080;28;20052;-63
2022/03/24 03:57:05;;;;;;;123.65;94.43;;;;;;;;;;5026852;28;20041;-63
2022/03/24 03:59:31;;;;;;;120.40;92.85;;;;;;;;;;5026823;28;20499;-65
2022/03/24 04:01:58;;;;;;;128.73;97.60;;;;;;;;;;5028152;28;20069;-62
2022/03/24 04:04:24;;;;;;;130.32;99.53;;;;;;;;;;5026379;28;20052;-62
2022/03/24 04:06:50;;;;;;;131.25;99.38;;;;;;;;;;5028215;28;20550;-63
2022/03/24 04:09:16;;;;;;;128.77;97.97;;;;;;;;;;5026539;28;20124;-62
2022/03/24 04:11:42;;;;;;;136.65;103.10;;;;;;;;;;5028083;28;20120;-62
2022/03/24 04:14:08;;;;;;;140.23;105.30;;;;;;;;;;5026137;28;20045;-62
2022/03/24 04:16:34;;;;;;;134.70;101.40;;;;;;;;;;5011213;28;20049;-62
2022/03/24 04:19:00;;;;;;;143.25;106.20;;;;;;;;;;5028311;28;20033;-63
2022/03/24 04:21:26;;;;;;;135.30;102.97;;;;;;;;;;5027566;28;20128;-62
2022/03/24 04:23:52;;;;;;;145.38;107.00;;;;;;;;;;5026527;28;20053;-64
2022/03/24 04:26:19;;;;;;;139.55;103.03;;;;;;;;;;5042861;28;20041;-63
2022/03/24 04:28:45;;;;;;;146.23;105.68;;;;;;;;;;5025961;28;20507;-62
2022/03/24 04:31:11;;;;;;;140.88;102.30;;;;;;;;;;5026549;28;20434;-63
2022/03/24 04:33:37;;;;;;;152.55;110.93;;;;;;;;;;5027192;28;20543;-62
2022/03/24 04:36:08;;;;;;;137.02;101.30;;;;;;;;;;5025945;28;20038;-63
2022/03/24 04:38:34;;;;;;;138.48;103.05;;;;;;;;;;5027424;28;20048;-63
2022/03/24 04:41:00;;;;;;;140.45;101.47;;;;;;;;;;5009463;28;20069;-63
2022/03/24 04:43:27;;;;;;;155.05;109.22;;;;;;;;;;5026261;28;20045;-63
2022/03/24 04:45:53;;;;;;;165.30;114.30;;;;;;;;;;5007642;28;20038;-62
2022/03/24 04:48:20;;;;;;;149.70;106.18;;;;;;;;;;5027456;28;20042;-62
2022/03/24 04:50:46;;;;;;;156.93;109.20;;;;;;;;;;5025648;28;20045;-62
2022/03/24 04:53:14;;;;;;;149.63;107.03;;;;;;;;;;5025617;28;20099;-62
2022/03/24 04:55:41;;;;;;;145.27;103.00;;;;;;;;;;5026786;28;20050;-63
2022/03/24 04:58:07;;;;;;;148.35;107.50;;;;;;;;;;5009240;28;20045;-63
2022/03/24 05:00:33;;;;;;;151.45;107.65;;;;;;;;;;5027122;28;20045;-63
2022/03/24 05:03:00;;;;;;;181.95;122.30;;;;;;;;;;5025753;28;20037;-63
2022/03/24 05:05:26;;;;;;;161.95;116.40;;;;;;;;;;5024965;28;20040;-63
2022/03/24 05:07:52;;;;;;;160.27;115.53;;;;;;;;;;5027146;28;20407;-62
2022/03/24 05:10:18;;;;;;;168.43;116.60;;;;;;;;;;5026572;28;20495;-63
2022/03/24 05:12:44;;;;;;;156.63;112.25;;;;;;;;;;5026862;28;20041;-63
2022/03/24 05:15:11;;;;;;;166.50;116.68;;;;;;;;;;5025523;28;20076;-62
2022/03/24 05:17:37;;;;;;;139.50;103.72;;;;;;;;;;5025711;28;20554;-62
2022/03/24 05:20:04;;;;;;;161.95;114.40;;;;;;;;;;5027359;28;20045;-62
2022/03/24 05:22:30;;;;;;;171.95;119.18;;;;;;;;;;5040812;28;20041;-63
2022/03/24 05:24:56;;;;;;;173.65;117.38;;;;;;;;;;5027029;28;20037;-62
2022/03/24 05:27:22;;;;;;;159.93;113.55;;;;;;;;;;5023805;28;20502;-63
2022/03/24 05:29:48;;;;;;;176.27;121.13;;;;;;;;;;5026656;28;20050;-64
2022/03/24 05:32:15;;;;;;;155.30;112.38;;;;;;;;;;5026937;28;20120;-63
2022/03/24 05:34:41;;;;;;;151.55;106.65;;;;;;;;;;5023986;28;20089;-63
2022/03/24 05:37:07;;;;;;;159.57;111.90;;;;;;;;;;5041776;28;20411;-62
2022/03/24 05:39:33;;;;;;;152.10;110.65;;;;;;;;;;5026655;28;20431;-62
2022/03/24 05:42:02;;;;;;;144.18;102.95;;;;;;;;;;5026593;28;20422;-63
2022/03/24 05:44:29;;;;;;;135.63;101.10;;;;;;;;;;5025073;28;20041;-63
2022/03/24 05:46:55;;;;;;;127.97;96.85;;;;;;;;;;5027185;28;20052;-62
2022/03/24 05:49:21;;;;;;;137.90;100.15;;;;;;;;;;5025485;28;20507;-63
2022/03/24 05:51:48;;;;;;;132.30;99.22;;;;;;;;;;5025981;28;20045;-63
2022/03/24 05:54:16;;;;;;;128.25;95.45;;;;;;;;;;5012546;28;20048;-63
2022/03/24 05:56:42;;;;;;;132.43;98.55;;;;;;;;;;5029239;28;20104;-63
2022/03/24 05:59:09;;;;;;;132.20;98.10;;;;;;;;;;5028904;28;20156;-63
2022/03/24 06:01:35;;;;;;;126.47;92.85;;;;;;;;;;5028928;28;20825;-62
2022/03/24 06:04:01;;;;;;;114.95;84.05;;;;;;;;;;5045641;28;20045;-64
2022/03/24 06:06:27;;;;;;;105.10;78.78;;;;;;;;;;5028747;28;20087;-63
2022/03/24 06:08:57;;;;;;;118.82;88.00;;;;;;;;;;5012159;28;20128;-64
2022/03/24 06:11:24;;;;;;;121.60;89.97;;;;;;;;;;5027367;28;20034;-63
2022/03/24 06:13:50;;;;;;;116.78;92.25;;;;;;;;;;5026358;28;20042;-62
2022/03/24 06:16:17;;;;;;;111.75;85.38;;;;;;;;;;5027515;28;20042;-62
2022/03/24 06:18:43;;;;;;;102.00;80.97;;;;;;;;;;5029283;28;20678;-63
2022/03/24 06:21:09;;;;;;;108.78;80.53;;;;;;;;;;5027899;28;20395;-62
2022/03/24 06:23:35;;;;;;;91.82;72.32;;;;;;;;;;5029915;28;20407;-62
2022/03/24 06:26:02;;;;;;;92.85;69.47;;;;;;;;;;5029200;28;20052;-63
2022/03/24 06:28:28;;;;;;;90.03;70.45;;;;;;;;;;5028574;28;20124;-62
2022/03/24 06:30:54;;;;;;;86.03;66.88;;;;;;;;;;5028661;28;20065;-61
2022/03/24 06:33:21;;;;;;;81.65;64.68;;;;;;;;;;5029293;28;20450;-61
2022/03/24 06:35:48;;;;;;;77.40;60.75;;;;;;;;;;5045005;28;20045;-61
2022/03/24 06:38:15;;;;;;;78.05;60.75;;;;;;;;;;5030671;28;20064;-61
2022/03/24 06:40:42;;;;;;;76.95;62.17;;;;;;;;;;5016320;28;20061;-61
2022/03/24 06:43:09;;;;;;;75.20;58.78;;;;;;;;;;5028846;28;20045;-61
2022/03/24 06:45:36;;;;;;;71.13;56.33;;;;;;;;;;5029677;28;20068;-61
2022/03/24 06:48:02;;;;;;;71.05;57.03;;;;;;;;;;5028874;28;20055;-61
2022/03/24 06:50:28;;;;;;;70.30;58.85;;;;;;;;;;5029805;28;20038;-62
2022/03/24 06:52:55;;;;;;;72.25;56.75;;;;;;;;;;5027899;28;20041;-62
2022/03/24 06:55:21;;;;;;;69.20;56.85;;;;;;;;;;5027341;28;20132;-62
2022/03/24 06:57:47;;;;;;;66.25;55.08;;;;;;;;;;5028114;28;20152;-62
2022/03/24 07:00:15;;;;;;;69.82;55.67;;;;;;;;;;5027952;28;20384;-63
2022/03/24 07:02:41;;;;;;;67.70;57.90;;;;;;;;;;5026918;28;20041;-60
2022/03/24 07:05:13;;;;;;;61.88;53.00;;;;;;;;;;5028914;28;20037;-60
2022/03/24 07:07:40;;;;;;;61.65;52.95;;;;;;;;;;5027013;28;20037;-61
2022/03/24 07:10:06;;;;;;;64.68;55.22;;;;;;;;;;5028023;28;20076;-61
2022/03/24 07:12:32;;;;;;;64.35;56.97;;;;;;;;;;5028837;28;20034;-61
2022/03/24 07:14:58;;;;;;;63.42;52.05;;;;;;;;;;5009549;28;20078;-61
2022/03/24 07:17:24;;;;;;;62.50;54.00;;;;;;;;;;5027960;28;20054;-61
2022/03/24 07:19:50;;;;;;;59.75;51.33;;;;;;;;;;5029291;28;20041;-61
2022/03/24 07:22:16;;;;;;;59.88;52.42;;;;;;;;;;5027985;28;20128;-62
2022/03/24 07:24:42;;;;;;;57.65;50.30;;;;;;;;;;5029187;28;20046;-61
2022/03/24 07:27:10;;;;;;;55.15;49.20;;;;;;;;;;5011529;28;20064;-61
2022/03/24 07:29:36;;;;;;;60.40;53.72;;;;;;;;;;5029136;28;20037;-62
2022/03/24 07:32:02;;;;;;;58.42;52.05;;;;;;;;;;5028623;28;20079;-63
2022/03/24 07:34:28;;;;;;;61.05;53.97;;;;;;;;;;5027442;28;20040;-63
2022/03/24 07:36:55;;;;;;;61.33;51.50;;;;;;;;;;5026591;28;20071;-63
2022/03/24 07:39:21;;;;;;;57.97;51.75;;;;;;;;;;5028886;28;20049;-62
2022/03/24 07:41:47;;;;;;;55.70;49.85;;;;;;;;;;5027386;28;20057;-62
2022/03/24 07:44:13;;;;;;;58.63;51.95;;;;;;;;;;5027252;28;20102;-63
2022/03/24 07:46:41;;;;;;;59.08;52.88;;;;;;;;;;5027497;28;20038;-62
2022/03/24 07:49:07;;;;;;;60.78;54.50;;;;;;;;;;5026803;28;20041;-62
2022/03/24 07:51:34;;;;;;;60.60;50.80;;;;;;;;;;5028339;28;20143;-61
2022/03/24 07:54:02;;;;;;;59.42;52.90;;;;;;;;;;5028416;28;20045;-62
2022/03/24 07:56:29;;;;;;;56.33;50.17;;;;;;;;;;5028675;28;20048;-62
2022/03/24 07:58:56;;;;;;;56.35;50.08;;;;;;;;;;5027735;28;20484;-62
2022/03/24 08:01:40;;;;;;;56.22;50.28;;;;;;;;;;5027730;28;20121;-62
2022/03/24 08:04:06;;;;;;;57.28;51.08;;;;;;;;;;5028164;28;20051;-61
2022/03/24 08:06:35;;;;;;;56.03;49.97;;;;;;;;;;5026328;28;20049;-62
2022/03/24 08:09:02;;;;;;;55.50;49.47;;;;;;;;;;5027751;28;20041;-62
2022/03/24 08:11:29;;;;;;;55.55;49.75;;;;;;;;;;5028069;28;20111;-62
2022/03/24 08:13:56;;;;;;;54.70;48.50;;;;;;;;;;5027119;28;20495;-62
2022/03/24 08:16:24;;;;;;;52.95;47.50;;;;;;;;;;5027491;28;20099;-62
2022/03/24 08:18:50;;;;;;;61.05;48.67;;;;;;;;;;5027093;28;20216;-63
2022/03/24 08:21:16;;;;;;;53.05;47.35;;;;;;;;;;5044704;28;20116;-62
2022/03/24 08:23:42;;;;;;;53.40;47.60;;;;;;;;;;5029008;28;20561;-63
2022/03/24 08:26:09;;;;;;;55.40;49.35;;;;;;;;;;5028550;28;20380;-63
2022/03/24 08:28:35;;;;;;;53.58;47.78;;;;;;;;;;5026798;28;20041;-62
2022/03/24 08:31:01;;;;;;;51.15;45.67;;;;;;;;;;5028481;28;20041;-62
2022/03/24 08:33:28;;;;;;;53.70;48.20;;;;;;;;;;5027334;28;20378;-64
2022/03/24 08:35:54;;;;;;;51.30;46.08;;;;;;;;;;5025762;28;20438;-62
2022/03/24 08:38:20;;;;;;;50.63;45.38;;;;;;;;;;5027658;28;20558;-61
2022/03/24 08:40:47;;;;;;;51.10;45.72;;;;;;;;;;5008597;28;20042;-63
2022/03/24 08:43:13;;;;;;;52.20;46.25;;;;;;;;;;5027361;28;21422;-63
2022/03/24 08:45:39;;;;;;;52.17;46.15;;;;;;;;;;5027685;28;20431;-62
2022/03/24 08:48:06;;;;;;;49.65;44.58;;;;;;;;;;5027646;28;20045;-62
2022/03/24 08:50:32;;;;;;;49.60;44.50;;;;;;;;;;5027525;28;20045;-63
2022/03/24 08:52:59;;;;;;;48.88;43.88;;;;;;;;;;5006750;28;20475;-64
2022/03/24 08:55:25;;;;;;;49.00;43.90;;;;;;;;;;5027998;28;20121;-63
2022/03/24 08:57:52;;;;;;;50.75;45.53;;;;;;;;;;5026710;28;20068;-62
2022/03/24 09:00:18;;;;;;;52.13;46.40;;;;;;;;;;5028121;28;20087;-62
2022/03/24 09:02:45;;;;;;;49.80;44.50;;;;;;;;;;5027733;28;20041;-64
2022/03/24 09:05:11;;;;;;;51.22;44.88;;;;;;;;;;5026284;28;20088;-62
2022/03/24 09:07:38;;;;;;;49.40;44.25;;;;;;;;;;5026234;28;20037;-63
2022/03/24 09:10:06;;;;;;;50.80;45.40;;;;;;;;;;5027532;28;20041;-63
2022/03/24 09:12:34;;;;;;;49.20;43.97;;;;;;;;;;5027320;28;20491;-63
2022/03/24 09:15:00;;;;;;;47.92;42.85;;;;;;;;;;5027514;28;20060;-63
2022/03/24 09:17:27;;;;;;;48.45;43.30;;;;;;;;;;5027350;28;20041;-62
2022/03/24 09:19:53;;;;;;;49.30;43.92;;;;;;;;;;5026293;28;20044;-62
2022/03/24 09:22:19;;;;;;;47.58;42.72;;;;;;;;;;5027205;28;20056;-62
2022/03/24 09:24:45;;;;;;;49.22;44.15;;;;;;;;;;5025881;28;20419;-62
2022/03/24 09:27:11;;;;;;;49.03;43.90;;;;;;;;;;5030375;28;20044;-62
2022/03/24 09:29:37;;;;;;;47.97;42.88;;;;;;;;;;5030252;28;20093;-64
2022/03/24 09:32:04;;;;;;;47.78;41.70;;;;;;;;;;5030724;28;20041;-63
2022/03/24 09:34:30;;;;;;;49.80;42.90;;;;;;;;;;5029581;28;20057;-62
2022/03/24 09:36:56;;;;;;;48.08;43.33;;;;;;;;;;5029366;28;20102;-63
2022/03/24 09:39:22;;;;;;;48.55;43.45;;;;;;;;;;5029507;28;20148;-63
2022/03/24 09:41:48;;;;;;;49.75;44.53;;;;;;;;;;5030340;28;20120;-63
2022/03/24 09:44:15;;;;;;;48.38;43.78;;;;;;;;;;5029524;28;20049;-62
2022/03/24 09:46:42;;;;;;;47.28;42.22;;;;;;;;;;5029448;28;20175;-62
2022/03/24 09:49:10;;;;;;;47.95;42.63;;;;;;;;;;5029494;28;20124;-63
2022/03/24 09:51:39;;;;;;;49.33;43.97;;;;;;;;;;5031457;28;20407;-63
2022/03/24 09:54:07;;;;;;;50.13;45.03;;;;;;;;;;5012291;28;20044;-63
2022/03/24 09:56:33;;;;;;;49.20;44.15;;;;;;;;;;5030863;28;20064;-62
2022/03/24 09:58:59;;;;;;;48.22;43.15;;;;;;;;;;5030904;28;20041;-63
2022/03/24 10:01:25;;;;;;;49.47;42.25;;;;;;;;;;5030102;28;20037;-62
2022/03/24 10:04:02;;;;;;;47.50;42.42;;;;;;;;;;5028023;28;20111;-62
2022/03/24 10:06:28;;;;;;;49.55;42.90;;;;;;;;;;5012796;28;20038;-63
2022/03/24 10:08:54;;;;;;;47.60;42.55;;;;;;;;;;5028946;28;20062;-63
2022/03/24 10:11:21;;;;;;;48.00;43.03;;;;;;;;;;5030253;28;20041;-63
2022/03/24 10:13:54;;;;;;;48.65;43.35;;;;;;;;;;5029156;28;20122;-62
2022/03/24 10:16:40;;;;;;;47.85;42.83;;;;;;;;;;5030490;28;20663;-62
2022/03/24 10:19:16;;;;;;;50.40;45.42;;;;;;;;;;5029831;28;20518;-63
2022/03/24 10:21:46;;;;;;;50.88;45.30;;;;;;;;;;5030481;28;20707;-63
2022/03/24 10:24:14;;;;;;;52.05;44.22;;;;;;;;;;5029611;28;20043;-63
2022/03/24 10:26:41;;;;;;;52.30;46.60;;;;;;;;;;5030451;28;20611;-63
2022/03/24 10:29:08;;;;;;;52.63;43.83;;;;;;;;;;5030392;28;20064;-61
2022/03/24 10:31:35;;;;;;;49.25;43.95;;;;;;;;;;5030232;28;20048;-62
2022/03/24 10:34:02;;;;;;;49.60;42.65;;;;;;;;;;5028666;28;20060;-63
2022/03/24 10:36:29;;;;;;;48.60;43.38;;;;;;;;;;5029734;28;20088;-63
2022/03/24 10:39:04;;;;;;;48.20;43.30;;;;;;;;;;5027155;28;20243;-61
2022/03/24 10:41:31;;;;;;;48.08;43.13;;;;;;;;;;5029950;28;20118;-62
2022/03/24 10:43:58;;;;;;;49.42;44.28;;;;;;;;;;5028383;28;20488;-63
2022/03/24 10:46:26;;;;;;;47.90;42.78;;;;;;;;;;5029940;28;20045;-62
2022/03/24 10:48:52;;;;;;;47.63;42.65;;;;;;;;;;5030107;28;20076;-62
2022/03/24 10:51:22;;;;;;;48.05;42.95;;;;;;;;;;5028572;28;20482;-62
2022/03/24 10:53:49;;;;;;;48.83;43.70;;;;;;;;;;5044081;28;20041;-62
2022/03/24 10:56:21;;;;;;;48.78;43.67;;;;;;;;;;5029925;28;20107;-64
2022/03/24 10:58:53;;;;;;;49.95;44.35;;;;;;;;;;5029720;28;20126;-62
2022/03/24 11:01:20;;;;;;;53.42;47.72;;;;;;;;;;5029884;28;20041;-62
2022/03/24 11:03:46;;;;;;;55.22;49.63;;;;;;;;;;5028046;28;20042;-64
2022/03/24 11:06:19;;;;;;;56.17;50.17;;;;;;;;;;5029026;28;20049;-64
2022/03/24 11:08:51;;;;;;;52.78;47.22;;;;;;;;;;5026676;28;20037;-63
2022/03/24 11:11:17;;;;;;;54.50;49.20;;;;;;;;;;5029598;28;20037;-64
2022/03/24 11:13:45;;;;;;;56.13;49.42;;;;;;;;;;5010529;28;20131;-63
2022/03/24 11:16:12;;;;;;;56.65;51.05;;;;;;;;;;5027905;28;20072;-63
2022/03/24 11:18:38;;;;;;;59.05;53.15;;;;;;;;;;5029412;28;20049;-63
2022/03/24 11:21:08;;;;;;;59.88;53.95;;;;;;;;;;5026564;28;20078;-63
2022/03/24 11:23:39;;;;;;;61.03;54.75;;;;;;;;;;5028438;28;20414;-64
2022/03/24 11:26:05;;;;;;;60.10;53.97;;;;;;;;;;5026034;28;20052;-63
2022/03/24 11:28:35;;;;;;;62.22;55.97;;;;;;;;;;5027014;28;20037;-63
2022/03/24 11:31:11;;;;;;;64.25;57.35;;;;;;;;;;5022814;28;20123;-62
2022/03/24 11:34:00;;;;;;;63.13;56.45;;;;;;;;;;5028160;28;20634;-63
2022/03/24 11:36:27;;;;;;;65.10;58.47;;;;;;;;;;5026353;28;20387;-63
2022/03/24 11:38:57;;;;;;;66.88;60.17;;;;;;;;;;5028659;28;20068;-62
2022/03/24 11:41:38;;;;;;;69.57;62.50;;;;;;;;;;5028607;28;20102;-63
2022/03/24 11:44:06;;;;;;;69.88;62.47;;;;;;;;;;5027823;28;20045;-63
2022/03/24 11:46:35;;;;;;;69.25;62.13;;;;;;;;;;5027439;28;20487;-61
2022/03/24 11:49:18;;;;;;;69.57;62.38;;;;;;;;;;5029063;28;20038;-61
2022/03/24 11:51:46;;;;;;;70.75;63.50;;;;;;;;;;5028585;28;20742;-62
2022/03/24 11:54:12;;;;;;;72.15;64.75;;;;;;;;;;5025437;28;20034;-61
2022/03/24 11:56:38;;;;;;;67.22;60.13;;;;;;;;;;5029055;28;20042;-62
2022/03/24 11:59:06;;;;;;;67.78;60.72;;;;;;;;;;5026988;28;20104;-62
2022/03/24 12:01:33;;;;;;;69.00;61.80;;;;;;;;;;5027454;28;20049;-62
2022/03/24 12:04:09;;;;;;;70.82;63.35;;;;;;;;;;5028603;28;20411;-62
2022/03/24 12:06:42;;;;;;;72.20;64.72;;;;;;;;;;5010442;28;20041;-61
2022/03/24 12:09:09;;;;;;;72.60;65.20;;;;;;;;;;5024501;28;20048;-61
2022/03/24 12:11:41;;;;;;;73.47;65.93;;;;;;;;;;5025291;28;20731;-62
2022/03/24 12:14:21;;;;;;;74.10;66.57;;;;;;;;;;5025755;28;20079;-61
2022/03/24 12:16:49;;;;;;;75.43;67.55;;;;;;;;;;5026499;28;20045;-62
2022/03/24 12:19:36;;;;;;;72.85;65.32;;;;;;;;;;5028768;28;20091;-61
2022/03/24 12:22:21;;;;;;;73.35;65.78;;;;;;;;;;5028383;28;20030;-63
2022/03/24 12:24:47;;;;;;;71.05;63.83;;;;;;;;;;5028018;28;20690;-61
2022/03/24 12:27:16;;;;;;;74.15;66.50;;;;;;;;;;5025353;28;20041;-62
2022/03/24 12:29:42;;;;;;;72.72;65.22;;;;;;;;;;5027034;28;20041;-61
2022/03/24 12:32:11;;;;;;;69.38;62.25;;;;;;;;;;5027136;28;20039;-62
2022/03/24 12:34:43;;;;;;;70.22;63.33;;;;;;;;;;5025327;28;20045;-62
2022/03/24 12:37:24;;;;;;;72.60;65.35;;;;;;;;;;5026096;28;20119;-63
2022/03/24 12:40:09;;;;;;;73.68;66.25;;;;;;;;;;5026061;28;20061;-62
2022/03/24 12:42:49;;;;;;;70.38;63.10;;;;;;;;;;5024071;28;20041;-62
2022/03/24 12:45:36;;;;;;;66.55;59.92;;;;;;;;;;5026757;28;20068;-61
2022/03/24 12:48:10;;;;;;;65.03;58.70;;;;;;;;;;5026235;28;20404;-62
2022/03/24 12:50:42;;;;;;;65.50;58.67;;;;;;;;;;5025313;28;20056;-61
2022/03/24 12:53:09;;;;;;;65.30;58.63;;;;;;;;;;5027840;28;20498;-61
2022/03/24 12:55:36;;;;;;;63.85;57.58;;;;;;;;;;5026659;28;20049;-61
2022/03/24 12:58:04;;;;;;;64.20;57.95;;;;;;;;;;5024614;28;20041;-62
2022/03/24 13:00:34;;;;;;;64.70;58.25;;;;;;;;;;5027370;28;20072;-61
2022/03/24 13:03:05;;;;;;;65.28;58.88;;;;;;;;;;5029918;28;20620;-61
2022/03/24 13:05:32;;;;;;;68.07;61.35;;;;;;;;;;5028693;28;20077;-62
2022/03/24 13:07:58;;;;;;;68.43;61.80;;;;;;;;;;5032080;28;20556;-62
2022/03/24 13:10:26;;;;;;;68.57;61.72;;;;;;;;;;5031554;28;20100;-62
2022/03/24 13:12:54;;;;;;;68.13;61.30;;;;;;;;;;5029413;28;20042;-61
2022/03/24 13:15:22;;;;;;;68.00;61.05;;;;;;;;;;5032217;28;20492;-62
2022/03/24 13:17:50;;;;;;;69.03;61.97;;;;;;;;;;5029708;28;20164;-63
2022/03/24 13:20:16;;;;;;;69.80;62.90;;;;;;;;;;5013155;28;20515;-62
2022/03/24 13:22:42;;;;;;;68.57;61.85;;;;;;;;;;5030109;28;20042;-60
2022/03/24 13:25:10;;;;;;;67.65;60.60;;;;;;;;;;5029475;28;20120;-63
2022/03/24 13:27:38;;;;;;;68.78;61.95;;;;;;;;;;5030698;28;20045;-62
2022/03/24 13:30:06;;;;;;;64.13;57.88;;;;;;;;;;5028673;28;20033;-63
2022/03/24 13:32:32;;;;;;;66.38;59.78;;;;;;;;;;5028356;28;20045;-61
2022/03/24 13:35:03;;;;;;;69.35;62.63;;;;;;;;;;5028579;28;20112;-61
2022/03/24 13:37:34;;;;;;;72.85;65.78;;;;;;;;;;5031056;28;20403;-62
2022/03/24 13:40:01;;;;;;;68.28;61.40;;;;;;;;;;5029910;28;20057;-61
2022/03/24 13:42:27;;;;;;;70.05;62.92;;;;;;;;;;5030672;28;20491;-62
2022/03/24 13:44:55;;;;;;;69.45;62.83;;;;;;;;;;5029710;28;20045;-62
2022/03/24 13:47:23;;;;;;;69.38;62.50;;;;;;;;;;5028278;28;20483;-62
2022/03/24 13:49:54;;;;;;;72.10;65.03;;;;;;;;;;5026426;28;20115;-61
2022/03/24 13:52:30;;;;;;;72.93;65.70;;;;;;;;;;5030849;28;20055;-61
2022/03/24 13:55:02;;;;;;;72.00;64.85;;;;;;;;;;5027649;28;20045;-61
2022/03/24 13:57:28;;;;;;;72.93;65.53;;;;;;;;;;5028930;28;20507;-61
2022/03/24 13:59:54;;;;;;;72.85;65.82;;;;;;;;;;5031084;28;20067;-61
2022/03/24 14:02:25;;;;;;;71.45;64.13;;;;;;;;;;5030705;28;20042;-61
2022/03/24 14:05:09;;;;;;;68.63;61.90;;;;;;;;;;5029629;28;20073;-62
2022/03/24 14:07:54;;;;;;;68.70;61.85;;;;;;;;;;5030746;28;20073;-61
2022/03/24 14:10:21;;;;;;;68.20;61.47;;;;;;;;;;5030691;28;20069;-61
2022/03/24 14:12:51;;;;;;;68.55;61.80;;;;;;;;;;5011927;28;20091;-62